sensor_id;sensor_type;location;lat;lon;timestamp;temperature;humidity
13561;DHT22;6852;51.686;5.314;2023-06-14T00:00:58;20.90;99.90
13561;DHT22;6852;51.686;5.314;2023-06-14T00:03:26;20.90;99.90
13561;DHT22;6852;51.686;5.314;2023-06-14T00:05:53;20.70;99.90
13561;DHT22;6852;51.686;5.314;2023-06-14T00:08:20;20.70;99.90
13561;DHT22;6852;51.686;5.314;2023-06-14T00:10:49;20.70;99.90
13561;DHT22;6852;51.686;5.314;2023-06-14T00:13:16;20.60;99.90
13561;DHT22;6852;51.686;5.314;2023-06-14T00:15:43;20.50;99.90
13561;DHT22;6852;51.686;5.314;2023-06-14T00:18:11;20.60;99.90
13561;DHT22;6852;51.686;5.314;2023-06-14T00:20:41;20.60;99.90
13561;DHT22;6852;51.686;5.314;2023-06-14T00:23:09;20.60;99.90
13561;DHT22;6852;51.686;5.314;2023-06-14T00:25:40;20.60;99.90
13561;DHT22;6852;51.686;5.314;2023-06-14T00:28:07;20.50;99.90
13561;DHT22;6852;51.686;5.314;2023-06-14T00:30:34;20.60;99.90
13561;DHT22;6852;51.686;5.314;2023-06-14T00:33:01;20.60;99.90
13561;DHT22;6852;51.686;5.314;2023-06-14T00:35:28;20.60;99.90
13561;DHT22;6852;51.686;5.314;2023-06-14T00:37:55;20.60;99.90
13561;DHT22;6852;51.686;5.314;2023-06-14T00:40:23;20.40;99.90
13561;DHT22;6852;51.686;5.314;2023-06-14T00:42:50;20.40;99.90
13561;DHT22;6852;51.686;5.314;2023-06-14T00:45:17;20.40;99.90
13561;DHT22;6852;51.686;5.314;2023-06-14T00:47:47;20.50;99.90
13561;DHT22;6852;51.686;5.314;2023-06-14T00:50:19;20.50;99.90
13561;DHT22;6852;51.686;5.314;2023-06-14T00:52:50;20.60;99.90
13561;DHT22;6852;51.686;5.314;2023-06-14T00:55:18;20.40;99.90
13561;DHT22;6852;51.686;5.314;2023-06-14T00:57:45;20.30;99.90
13561;DHT22;6852;51.686;5.314;2023-06-14T01:00:18;20.30;99.90
13561;DHT22;6852;51.686;5.314;2023-06-14T01:02:45;20.20;99.90
13561;DHT22;6852;51.686;5.314;2023-06-14T01:05:22;20.20;99.90
13561;DHT22;6852;51.686;5.314;2023-06-14T01:10:45;20.20;99.90
13561;DHT22;6852;51.686;5.314;2023-06-14T01:13:23;20.20;99.90
13561;DHT22;6852;51.686;5.314;2023-06-14T01:15:53;20.20;99.90
13561;DHT22;6852;51.686;5.314;2023-06-14T01:18:22;20.40;99.90
13561;DHT22;6852;51.686;5.314;2023-06-14T01:20:59;20.40;99.90
13561;DHT22;6852;51.686;5.314;2023-06-14T01:23:47;20.40;99.90
13561;DHT22;6852;51.686;5.314;2023-06-14T01:26:23;20.20;99.90
13561;DHT22;6852;51.686;5.314;2023-06-14T01:28:51;20.20;99.90
13561;DHT22;6852;51.686;5.314;2023-06-14T01:31:24;20.20;99.90
13561;DHT22;6852;51.686;5.314;2023-06-14T01:33:52;20.20;99.90
13561;DHT22;6852;51.686;5.314;2023-06-14T01:36:19;20.30;99.90
13561;DHT22;6852;51.686;5.314;2023-06-14T01:38:48;20.30;99.90
13561;DHT22;6852;51.686;5.314;2023-06-14T01:41:18;20.20;99.90
13561;DHT22;6852;51.686;5.314;2023-06-14T01:43:48;19.90;99.90
13561;DHT22;6852;51.686;5.314;2023-06-14T01:46:16;20.00;99.90
13561;DHT22;6852;51.686;5.314;2023-06-14T01:48:43;20.10;99.90
13561;DHT22;6852;51.686;5.314;2023-06-14T01:51:13;20.00;99.90
13561;DHT22;6852;51.686;5.314;2023-06-14T01:53:40;20.00;99.90
13561;DHT22;6852;51.686;5.314;2023-06-14T01:56:07;20.00;99.90
13561;DHT22;6852;51.686;5.314;2023-06-14T01:58:34;20.00;99.90
13561;DHT22;6852;51.686;5.314;2023-06-14T02:01:08;20.00;99.90
13561;DHT22;6852;51.686;5.314;2023-06-14T02:03:35;19.80;99.90
13561;DHT22;6852;51.686;5.314;2023-06-14T02:06:05;19.80;99.90
13561;DHT22;6852;51.686;5.314;2023-06-14T02:08:32;19.90;99.90
13561;DHT22;6852;51.686;5.314;2023-06-14T02:10:59;19.90;99.90
13561;DHT22;6852;51.686;5.314;2023-06-14T02:13:26;19.80;99.90
13561;DHT22;6852;51.686;5.314;2023-06-14T02:15:57;19.90;99.90
13561;DHT22;6852;51.686;5.314;2023-06-14T02:18:24;19.80;99.90
13561;DHT22;6852;51.686;5.314;2023-06-14T02:20:52;19.80;99.90
13561;DHT22;6852;51.686;5.314;2023-06-14T02:23:19;19.80;99.90
13561;DHT22;6852;51.686;5.314;2023-06-14T02:25:46;19.80;99.90
13561;DHT22;6852;51.686;5.314;2023-06-14T02:28:14;19.80;99.90
13561;DHT22;6852;51.686;5.314;2023-06-14T02:30:44;19.80;99.90
13561;DHT22;6852;51.686;5.314;2023-06-14T02:33:11;19.70;99.90
13561;DHT22;6852;51.686;5.314;2023-06-14T02:35:40;19.70;99.90
13561;DHT22;6852;51.686;5.314;2023-06-14T02:38:08;19.70;99.90
13561;DHT22;6852;51.686;5.314;2023-06-14T02:40:37;19.70;99.90
13561;DHT22;6852;51.686;5.314;2023-06-14T02:43:21;19.60;99.90
13561;DHT22;6852;51.686;5.314;2023-06-14T02:45:50;19.60;99.90
13561;DHT22;6852;51.686;5.314;2023-06-14T02:48:20;19.70;99.90
13561;DHT22;6852;51.686;5.314;2023-06-14T02:50:50;19.60;99.90
13561;DHT22;6852;51.686;5.314;2023-06-14T02:53:18;19.50;99.90
13561;DHT22;6852;51.686;5.314;2023-06-14T02:55:45;19.60;99.90
13561;DHT22;6852;51.686;5.314;2023-06-14T02:58:14;19.60;99.90
13561;DHT22;6852;51.686;5.314;2023-06-14T03:00:41;19.60;99.90
13561;DHT22;6852;51.686;5.314;2023-06-14T03:03:09;19.60;99.90
13561;DHT22;6852;51.686;5.314;2023-06-14T03:05:45;19.50;99.90
13561;DHT22;6852;51.686;5.314;2023-06-14T03:08:19;19.50;99.90
13561;DHT22;6852;51.686;5.314;2023-06-14T03:10:47;19.30;99.90
13561;DHT22;6852;51.686;5.314;2023-06-14T03:13:15;19.40;99.90
13561;DHT22;6852;51.686;5.314;2023-06-14T03:15:43;19.50;99.90
13561;DHT22;6852;51.686;5.314;2023-06-14T03:18:10;19.40;99.90
13561;DHT22;6852;51.686;5.314;2023-06-14T03:20:42;19.30;99.90
13561;DHT22;6852;51.686;5.314;2023-06-14T03:23:21;19.30;99.90
13561;DHT22;6852;51.686;5.314;2023-06-14T03:25:48;19.30;99.90
13561;DHT22;6852;51.686;5.314;2023-06-14T03:28:15;19.30;99.90
13561;DHT22;6852;51.686;5.314;2023-06-14T03:30:42;19.30;99.90
13561;DHT22;6852;51.686;5.314;2023-06-14T03:33:10;19.30;99.90
13561;DHT22;6852;51.686;5.314;2023-06-14T03:35:42;19.20;99.90
13561;DHT22;6852;51.686;5.314;2023-06-14T03:38:13;19.20;99.90
13561;DHT22;6852;51.686;5.314;2023-06-14T03:40:45;19.20;99.90
13561;DHT22;6852;51.686;5.314;2023-06-14T03:43:15;19.20;99.90
13561;DHT22;6852;51.686;5.314;2023-06-14T03:45:42;19.20;99.90
13561;DHT22;6852;51.686;5.314;2023-06-14T03:48:13;19.00;99.90
13561;DHT22;6852;51.686;5.314;2023-06-14T03:50:52;18.90;99.90
13561;DHT22;6852;51.686;5.314;2023-06-14T03:53:27;18.80;99.90
13561;DHT22;6852;51.686;5.314;2023-06-14T03:56:01;18.90;99.90
13561;DHT22;6852;51.686;5.314;2023-06-14T03:58:31;19.00;99.90
13561;DHT22;6852;51.686;5.314;2023-06-14T04:01:12;19.00;99.90
13561;DHT22;6852;51.686;5.314;2023-06-14T04:03:39;18.90;99.90
13561;DHT22;6852;51.686;5.314;2023-06-14T04:06:08;18.90;99.90
13561;DHT22;6852;51.686;5.314;2023-06-14T04:11:22;18.80;99.90
13561;DHT22;6852;51.686;5.314;2023-06-14T04:13:49;18.80;99.90
13561;DHT22;6852;51.686;5.314;2023-06-14T04:16:20;18.70;99.90
13561;DHT22;6852;51.686;5.314;2023-06-14T04:18:48;18.80;99.90
13561;DHT22;6852;51.686;5.314;2023-06-14T04:21:18;18.60;99.90
13561;DHT22;6852;51.686;5.314;2023-06-14T04:23:48;18.60;99.90
13561;DHT22;6852;51.686;5.314;2023-06-14T04:26:18;18.70;99.90
13561;DHT22;6852;51.686;5.314;2023-06-14T04:28:46;18.70;99.90
13561;DHT22;6852;51.686;5.314;2023-06-14T04:31:23;18.70;99.90
13561;DHT22;6852;51.686;5.314;2023-06-14T04:33:59;18.70;99.90
13561;DHT22;6852;51.686;5.314;2023-06-14T04:36:29;18.60;99.90
13561;DHT22;6852;51.686;5.314;2023-06-14T04:39:01;18.70;99.90
13561;DHT22;6852;51.686;5.314;2023-06-14T04:41:30;18.50;99.90
13561;DHT22;6852;51.686;5.314;2023-06-14T04:43:59;18.50;99.90
13561;DHT22;6852;51.686;5.314;2023-06-14T04:46:28;18.60;99.90
13561;DHT22;6852;51.686;5.314;2023-06-14T04:48:57;18.50;99.90
13561;DHT22;6852;51.686;5.314;2023-06-14T04:51:24;18.50;99.90
13561;DHT22;6852;51.686;5.314;2023-06-14T04:53:56;18.70;99.90
13561;DHT22;6852;51.686;5.314;2023-06-14T04:56:25;18.70;99.90
13561;DHT22;6852;51.686;5.314;2023-06-14T04:58:52;18.80;99.90
13561;DHT22;6852;51.686;5.314;2023-06-14T05:01:21;19.00;99.90
13561;DHT22;6852;51.686;5.314;2023-06-14T05:03:50;19.10;99.90
13561;DHT22;6852;51.686;5.314;2023-06-14T05:06:17;19.00;99.90
13561;DHT22;6852;51.686;5.314;2023-06-14T05:08:46;19.20;99.90
13561;DHT22;6852;51.686;5.314;2023-06-14T05:11:14;19.20;99.90
13561;DHT22;6852;51.686;5.314;2023-06-14T05:13:47;19.20;99.90
13561;DHT22;6852;51.686;5.314;2023-06-14T05:16:23;19.30;99.90
13561;DHT22;6852;51.686;5.314;2023-06-14T05:18:54;19.40;99.90
13561;DHT22;6852;51.686;5.314;2023-06-14T05:21:22;19.50;99.90
13561;DHT22;6852;51.686;5.314;2023-06-14T05:23:52;19.60;99.90
13561;DHT22;6852;51.686;5.314;2023-06-14T05:26:20;19.60;99.90
13561;DHT22;6852;51.686;5.314;2023-06-14T05:28:47;19.50;99.90
13561;DHT22;6852;51.686;5.314;2023-06-14T05:31:15;19.70;99.90
13561;DHT22;6852;51.686;5.314;2023-06-14T05:33:42;19.70;99.90
13561;DHT22;6852;51.686;5.314;2023-06-14T05:36:09;19.80;99.90
13561;DHT22;6852;51.686;5.314;2023-06-14T05:38:43;20.00;99.90
13561;DHT22;6852;51.686;5.314;2023-06-14T05:41:20;20.00;99.90
13561;DHT22;6852;51.686;5.314;2023-06-14T05:43:54;20.30;99.90
13561;DHT22;6852;51.686;5.314;2023-06-14T05:46:25;20.40;99.90
13561;DHT22;6852;51.686;5.314;2023-06-14T05:49:07;20.50;99.90
13561;DHT22;6852;51.686;5.314;2023-06-14T05:51:36;20.30;99.90
13561;DHT22;6852;51.686;5.314;2023-06-14T05:54:03;20.50;99.90
13561;DHT22;6852;51.686;5.314;2023-06-14T05:56:33;20.50;99.90
13561;DHT22;6852;51.686;5.314;2023-06-14T05:59:02;20.40;99.90
13561;DHT22;6852;51.686;5.314;2023-06-14T06:01:45;20.30;99.90
13561;DHT22;6852;51.686;5.314;2023-06-14T06:04:15;20.30;99.90
13561;DHT22;6852;51.686;5.314;2023-06-14T06:06:42;20.60;99.90
13561;DHT22;6852;51.686;5.314;2023-06-14T06:09:10;20.60;99.90
13561;DHT22;6852;51.686;5.314;2023-06-14T06:11:39;20.60;99.90
13561;DHT22;6852;51.686;5.314;2023-06-14T06:14:18;20.70;99.90
13561;DHT22;6852;51.686;5.314;2023-06-14T06:16:54;20.80;99.90
13561;DHT22;6852;51.686;5.314;2023-06-14T06:19:22;20.90;99.90
13561;DHT22;6852;51.686;5.314;2023-06-14T06:21:49;20.80;99.90
13561;DHT22;6852;51.686;5.314;2023-06-14T06:24:16;20.90;99.90
13561;DHT22;6852;51.686;5.314;2023-06-14T06:26:43;20.90;99.90
13561;DHT22;6852;51.686;5.314;2023-06-14T06:29:10;20.90;99.90
13561;DHT22;6852;51.686;5.314;2023-06-14T06:31:38;21.00;99.90
13561;DHT22;6852;51.686;5.314;2023-06-14T06:34:05;21.00;99.90
13561;DHT22;6852;51.686;5.314;2023-06-14T06:36:32;21.00;99.90
13561;DHT22;6852;51.686;5.314;2023-06-14T06:38:59;21.20;99.90
13561;DHT22;6852;51.686;5.314;2023-06-14T06:41:26;21.30;99.90
13561;DHT22;6852;51.686;5.314;2023-06-14T06:43:54;21.50;99.90
13561;DHT22;6852;51.686;5.314;2023-06-14T06:46:21;21.70;99.90
13561;DHT22;6852;51.686;5.314;2023-06-14T06:48:48;22.00;99.90
13561;DHT22;6852;51.686;5.314;2023-06-14T06:51:15;21.90;99.90
13561;DHT22;6852;51.686;5.314;2023-06-14T06:53:42;21.90;99.90
13561;DHT22;6852;51.686;5.314;2023-06-14T06:56:17;22.10;99.90
13561;DHT22;6852;51.686;5.314;2023-06-14T06:58:44;22.30;99.90
13561;DHT22;6852;51.686;5.314;2023-06-14T07:01:11;22.70;99.90
13561;DHT22;6852;51.686;5.314;2023-06-14T07:03:40;23.00;99.90
13561;DHT22;6852;51.686;5.314;2023-06-14T07:06:07;22.80;99.90
13561;DHT22;6852;51.686;5.314;2023-06-14T07:08:34;23.30;99.90
13561;DHT22;6852;51.686;5.314;2023-06-14T07:11:05;23.30;99.90
13561;DHT22;6852;51.686;5.314;2023-06-14T07:13:32;23.50;99.90
13561;DHT22;6852;51.686;5.314;2023-06-14T07:16:00;23.30;99.90
13561;DHT22;6852;51.686;5.314;2023-06-14T07:18:30;23.20;99.90
13561;DHT22;6852;51.686;5.314;2023-06-14T07:20:57;24.10;99.90
13561;DHT22;6852;51.686;5.314;2023-06-14T07:23:24;24.80;99.90
13561;DHT22;6852;51.686;5.314;2023-06-14T07:25:51;24.70;99.90
13561;DHT22;6852;51.686;5.314;2023-06-14T07:28:19;24.90;99.90
13561;DHT22;6852;51.686;5.314;2023-06-14T07:30:49;25.40;99.90
13561;DHT22;6852;51.686;5.314;2023-06-14T07:33:16;25.60;99.90
13561;DHT22;6852;51.686;5.314;2023-06-14T07:35:43;25.40;99.90
13561;DHT22;6852;51.686;5.314;2023-06-14T07:38:10;25.20;99.90
13561;DHT22;6852;51.686;5.314;2023-06-14T07:40:37;24.80;99.90
13561;DHT22;6852;51.686;5.314;2023-06-14T07:43:04;25.20;99.90
13561;DHT22;6852;51.686;5.314;2023-06-14T07:45:31;25.60;99.90
13561;DHT22;6852;51.686;5.314;2023-06-14T07:47:58;25.80;99.90
13561;DHT22;6852;51.686;5.314;2023-06-14T07:50:25;26.30;99.90
13561;DHT22;6852;51.686;5.314;2023-06-14T07:52:52;25.90;99.90
13561;DHT22;6852;51.686;5.314;2023-06-14T07:55:19;25.90;99.90
13561;DHT22;6852;51.686;5.314;2023-06-14T07:57:49;25.40;99.90
13561;DHT22;6852;51.686;5.314;2023-06-14T08:00:16;25.50;99.90
13561;DHT22;6852;51.686;5.314;2023-06-14T08:02:45;26.60;99.90
13561;DHT22;6852;51.686;5.314;2023-06-14T08:05:18;26.90;99.90
13561;DHT22;6852;51.686;5.314;2023-06-14T08:07:45;27.10;99.90
13561;DHT22;6852;51.686;5.314;2023-06-14T08:10:12;27.20;99.90
13561;DHT22;6852;51.686;5.314;2023-06-14T08:12:40;26.60;99.90
13561;DHT22;6852;51.686;5.314;2023-06-14T08:15:07;26.80;99.90
13561;DHT22;6852;51.686;5.314;2023-06-14T08:17:41;26.20;99.90
13561;DHT22;6852;51.686;5.314;2023-06-14T08:20:09;26.60;99.90
13561;DHT22;6852;51.686;5.314;2023-06-14T08:22:38;26.80;99.90
13561;DHT22;6852;51.686;5.314;2023-06-14T08:25:06;27.10;99.90
13561;DHT22;6852;51.686;5.314;2023-06-14T08:27:33;27.10;99.90
13561;DHT22;6852;51.686;5.314;2023-06-14T08:30:01;27.40;99.90
13561;DHT22;6852;51.686;5.314;2023-06-14T08:32:29;27.30;99.90
13561;DHT22;6852;51.686;5.314;2023-06-14T08:34:56;28.10;99.90
13561;DHT22;6852;51.686;5.314;2023-06-14T08:37:31;28.50;99.90
13561;DHT22;6852;51.686;5.314;2023-06-14T08:40:00;27.20;99.90
13561;DHT22;6852;51.686;5.314;2023-06-14T08:42:30;27.20;99.90
13561;DHT22;6852;51.686;5.314;2023-06-14T08:44:58;27.30;99.90
13561;DHT22;6852;51.686;5.314;2023-06-14T08:47:27;27.00;99.90
13561;DHT22;6852;51.686;5.314;2023-06-14T08:49:57;27.30;99.90
13561;DHT22;6852;51.686;5.314;2023-06-14T08:52:25;27.70;99.90
13561;DHT22;6852;51.686;5.314;2023-06-14T08:54:57;27.90;99.90
13561;DHT22;6852;51.686;5.314;2023-06-14T08:57:26;28.30;99.90
13561;DHT22;6852;51.686;5.314;2023-06-14T08:59:57;28.60;99.90
13561;DHT22;6852;51.686;5.314;2023-06-14T09:02:24;28.30;99.90
13561;DHT22;6852;51.686;5.314;2023-06-14T09:04:52;27.80;99.90
13561;DHT22;6852;51.686;5.314;2023-06-14T09:07:19;28.20;99.90
13561;DHT22;6852;51.686;5.314;2023-06-14T09:09:45;28.10;99.90
13561;DHT22;6852;51.686;5.314;2023-06-14T09:12:32;27.80;99.90
13561;DHT22;6852;51.686;5.314;2023-06-14T09:14:59;28.50;99.90
13561;DHT22;6852;51.686;5.314;2023-06-14T09:17:26;29.10;99.90
13561;DHT22;6852;51.686;5.314;2023-06-14T09:19:55;29.10;99.90
13561;DHT22;6852;51.686;5.314;2023-06-14T09:22:22;28.70;99.90
13561;DHT22;6852;51.686;5.314;2023-06-14T09:24:49;29.00;99.90
13561;DHT22;6852;51.686;5.314;2023-06-14T09:27:16;29.50;99.90
13561;DHT22;6852;51.686;5.314;2023-06-14T09:29:43;29.40;99.90
13561;DHT22;6852;51.686;5.314;2023-06-14T09:32:10;29.60;99.90
13561;DHT22;6852;51.686;5.314;2023-06-14T09:34:37;29.40;99.90
13561;DHT22;6852;51.686;5.314;2023-06-14T09:37:05;29.00;99.90
13561;DHT22;6852;51.686;5.314;2023-06-14T09:39:32;28.60;99.90
13561;DHT22;6852;51.686;5.314;2023-06-14T09:41:59;28.80;99.90
13561;DHT22;6852;51.686;5.314;2023-06-14T09:44:27;28.30;99.90
13561;DHT22;6852;51.686;5.314;2023-06-14T09:46:56;27.70;99.90
13561;DHT22;6852;51.686;5.314;2023-06-14T09:49:23;28.10;99.90
13561;DHT22;6852;51.686;5.314;2023-06-14T09:51:53;28.20;99.90
13561;DHT22;6852;51.686;5.314;2023-06-14T09:54:22;28.10;99.90
13561;DHT22;6852;51.686;5.314;2023-06-14T09:56:51;28.30;99.90
13561;DHT22;6852;51.686;5.314;2023-06-14T09:59:24;28.50;99.90
13561;DHT22;6852;51.686;5.314;2023-06-14T10:01:58;28.40;99.90
13561;DHT22;6852;51.686;5.314;2023-06-14T10:04:28;28.40;99.90
13561;DHT22;6852;51.686;5.314;2023-06-14T10:06:55;28.70;99.90
13561;DHT22;6852;51.686;5.314;2023-06-14T10:09:23;28.90;99.90
13561;DHT22;6852;51.686;5.314;2023-06-14T10:11:50;28.80;99.90
13561;DHT22;6852;51.686;5.314;2023-06-14T10:14:18;29.10;99.90
13561;DHT22;6852;51.686;5.314;2023-06-14T10:16:52;29.10;99.90
13561;DHT22;6852;51.686;5.314;2023-06-14T10:19:44;29.10;99.90
13561;DHT22;6852;51.686;5.314;2023-06-14T10:22:22;27.50;99.90
13561;DHT22;6852;51.686;5.314;2023-06-14T10:24:51;28.20;99.90
13561;DHT22;6852;51.686;5.314;2023-06-14T10:27:18;28.50;99.90
13561;DHT22;6852;51.686;5.314;2023-06-14T10:32:21;28.60;99.90
13561;DHT22;6852;51.686;5.314;2023-06-14T10:34:57;28.70;99.90
13561;DHT22;6852;51.686;5.314;2023-06-14T10:37:24;28.40;99.90
13561;DHT22;6852;51.686;5.314;2023-06-14T10:39:52;28.40;99.90
13561;DHT22;6852;51.686;5.314;2023-06-14T10:42:20;27.80;99.90
13561;DHT22;6852;51.686;5.314;2023-06-14T10:44:50;27.70;99.90
13561;DHT22;6852;51.686;5.314;2023-06-14T10:52:24;28.20;99.90
13561;DHT22;6852;51.686;5.314;2023-06-14T10:55:15;28.00;99.90
13561;DHT22;6852;51.686;5.314;2023-06-14T10:57:46;28.30;99.90
13561;DHT22;6852;51.686;5.314;2023-06-14T11:00:19;28.60;99.90
13561;DHT22;6852;51.686;5.314;2023-06-14T11:11:00;28.00;99.90
13561;DHT22;6852;51.686;5.314;2023-06-14T11:13:32;29.20;99.90
13561;DHT22;6852;51.686;5.314;2023-06-14T11:15:59;29.70;99.90
13561;DHT22;6852;51.686;5.314;2023-06-14T11:18:28;30.30;99.90
13561;DHT22;6852;51.686;5.314;2023-06-14T11:20:55;30.50;99.90
13561;DHT22;6852;51.686;5.314;2023-06-14T11:23:22;29.80;99.90
13561;DHT22;6852;51.686;5.314;2023-06-14T11:25:53;29.90;99.90
13561;DHT22;6852;51.686;5.314;2023-06-14T11:28:22;30.10;99.90
13561;DHT22;6852;51.686;5.314;2023-06-14T11:31:00;30.40;99.90
13561;DHT22;6852;51.686;5.314;2023-06-14T11:33:28;29.70;99.90
13561;DHT22;6852;51.686;5.314;2023-06-14T11:35:55;29.90;99.90
13561;DHT22;6852;51.686;5.314;2023-06-14T11:38:22;30.40;99.90
13561;DHT22;6852;51.686;5.314;2023-06-14T11:40:49;29.30;99.90
13561;DHT22;6852;51.686;5.314;2023-06-14T11:43:16;29.70;99.90
13561;DHT22;6852;51.686;5.314;2023-06-14T11:45:48;29.30;99.90
13561;DHT22;6852;51.686;5.314;2023-06-14T11:48:41;30.20;99.90
13561;DHT22;6852;51.686;5.314;2023-06-14T11:51:08;30.40;99.90
13561;DHT22;6852;51.686;5.314;2023-06-14T11:53:35;30.10;99.90
13561;DHT22;6852;51.686;5.314;2023-06-14T11:56:03;30.90;99.90
13561;DHT22;6852;51.686;5.314;2023-06-14T11:58:30;30.80;99.90
13561;DHT22;6852;51.686;5.314;2023-06-14T12:00:57;30.60;99.90
13561;DHT22;6852;51.686;5.314;2023-06-14T12:03:25;30.30;99.90
13561;DHT22;6852;51.686;5.314;2023-06-14T12:06:07;30.20;99.90
13561;DHT22;6852;51.686;5.314;2023-06-14T12:08:36;30.70;99.90
13561;DHT22;6852;51.686;5.314;2023-06-14T12:11:14;29.70;99.90
13561;DHT22;6852;51.686;5.314;2023-06-14T12:13:42;29.40;99.90
13561;DHT22;6852;51.686;5.314;2023-06-14T12:16:11;29.60;99.90
13561;DHT22;6852;51.686;5.314;2023-06-14T12:18:39;29.60;99.90
13561;DHT22;6852;51.686;5.314;2023-06-14T12:21:08;29.90;99.90
13561;DHT22;6852;51.686;5.314;2023-06-14T12:23:43;30.20;99.90
13561;DHT22;6852;51.686;5.314;2023-06-14T12:26:16;30.70;99.90
13561;DHT22;6852;51.686;5.314;2023-06-14T12:28:47;30.40;99.90
13561;DHT22;6852;51.686;5.314;2023-06-14T12:31:16;29.60;99.90
13561;DHT22;6852;51.686;5.314;2023-06-14T12:33:43;30.10;99.90
13561;DHT22;6852;51.686;5.314;2023-06-14T12:36:13;29.30;99.90
13561;DHT22;6852;51.686;5.314;2023-06-14T12:38:40;30.00;99.90
13561;DHT22;6852;51.686;5.314;2023-06-14T12:41:08;30.00;99.90
13561;DHT22;6852;51.686;5.314;2023-06-14T12:43:37;29.90;99.90
13561;DHT22;6852;51.686;5.314;2023-06-14T12:46:04;30.50;99.90
13561;DHT22;6852;51.686;5.314;2023-06-14T12:48:31;30.70;99.90
13561;DHT22;6852;51.686;5.314;2023-06-14T12:50:58;30.40;99.90
13561;DHT22;6852;51.686;5.314;2023-06-14T12:53:25;29.70;99.90
13561;DHT22;6852;51.686;5.314;2023-06-14T12:55:52;30.00;99.90
13561;DHT22;6852;51.686;5.314;2023-06-14T12:58:19;30.40;99.90
13561;DHT22;6852;51.686;5.314;2023-06-14T13:00:47;30.90;99.90
13561;DHT22;6852;51.686;5.314;2023-06-14T13:03:14;30.00;99.90
13561;DHT22;6852;51.686;5.314;2023-06-14T13:05:41;30.00;99.90
13561;DHT22;6852;51.686;5.314;2023-06-14T13:08:09;30.00;99.90
13561;DHT22;6852;51.686;5.314;2023-06-14T13:10:36;29.30;99.90
13561;DHT22;6852;51.686;5.314;2023-06-14T13:13:03;29.70;99.90
13561;DHT22;6852;51.686;5.314;2023-06-14T13:15:30;29.40;99.90
13561;DHT22;6852;51.686;5.314;2023-06-14T13:17:57;29.80;99.90
13561;DHT22;6852;51.686;5.314;2023-06-14T13:20:24;29.80;99.90
13561;DHT22;6852;51.686;5.314;2023-06-14T13:22:51;30.10;99.90
13561;DHT22;6852;51.686;5.314;2023-06-14T13:25:18;30.10;99.90
13561;DHT22;6852;51.686;5.314;2023-06-14T13:27:45;29.70;99.90
13561;DHT22;6852;51.686;5.314;2023-06-14T13:30:13;29.40;99.90
13561;DHT22;6852;51.686;5.314;2023-06-14T13:32:41;28.70;99.90
13561;DHT22;6852;51.686;5.314;2023-06-14T13:35:08;28.40;99.90
13561;DHT22;6852;51.686;5.314;2023-06-14T13:37:35;29.10;99.90
13561;DHT22;6852;51.686;5.314;2023-06-14T13:40:02;29.30;99.90
13561;DHT22;6852;51.686;5.314;2023-06-14T13:42:29;28.90;99.90
13561;DHT22;6852;51.686;5.314;2023-06-14T13:44:58;28.70;99.90
13561;DHT22;6852;51.686;5.314;2023-06-14T13:47:25;28.50;99.90
13561;DHT22;6852;51.686;5.314;2023-06-14T13:49:52;28.60;99.90
13561;DHT22;6852;51.686;5.314;2023-06-14T13:52:19;27.90;99.90
13561;DHT22;6852;51.686;5.314;2023-06-14T13:54:46;27.90;99.90
13561;DHT22;6852;51.686;5.314;2023-06-14T13:57:16;28.30;99.90
13561;DHT22;6852;51.686;5.314;2023-06-14T13:59:43;28.90;99.90
13561;DHT22;6852;51.686;5.314;2023-06-14T14:02:13;29.10;99.90
13561;DHT22;6852;51.686;5.314;2023-06-14T14:04:40;28.60;99.90
13561;DHT22;6852;51.686;5.314;2023-06-14T14:07:08;28.00;99.90
13561;DHT22;6852;51.686;5.314;2023-06-14T14:09:35;28.70;99.90
13561;DHT22;6852;51.686;5.314;2023-06-14T14:12:02;28.50;99.90
13561;DHT22;6852;51.686;5.314;2023-06-14T14:14:32;27.90;99.90
13561;DHT22;6852;51.686;5.314;2023-06-14T14:16:59;27.40;99.90
13561;DHT22;6852;51.686;5.314;2023-06-14T14:19:25;27.20;99.90
13561;DHT22;6852;51.686;5.314;2023-06-14T14:21:53;27.60;99.90
13561;DHT22;6852;51.686;5.314;2023-06-14T14:24:20;27.70;99.90
13561;DHT22;6852;51.686;5.314;2023-06-14T14:26:47;27.50;99.90
13561;DHT22;6852;51.686;5.314;2023-06-14T14:29:16;27.60;99.90
13561;DHT22;6852;51.686;5.314;2023-06-14T14:31:44;27.70;99.90
13561;DHT22;6852;51.686;5.314;2023-06-14T14:34:11;27.60;99.90
13561;DHT22;6852;51.686;5.314;2023-06-14T14:36:41;27.30;99.90
13561;DHT22;6852;51.686;5.314;2023-06-14T14:39:09;27.40;99.90
13561;DHT22;6852;51.686;5.314;2023-06-14T14:41:36;27.40;99.90
13561;DHT22;6852;51.686;5.314;2023-06-14T14:44:08;27.30;99.90
13561;DHT22;6852;51.686;5.314;2023-06-14T14:46:41;26.90;99.90
13561;DHT22;6852;51.686;5.314;2023-06-14T14:49:11;26.90;99.90
13561;DHT22;6852;51.686;5.314;2023-06-14T14:51:38;27.40;99.90
13561;DHT22;6852;51.686;5.314;2023-06-14T14:54:06;27.30;99.90
13561;DHT22;6852;51.686;5.314;2023-06-14T14:56:33;27.30;99.90
13561;DHT22;6852;51.686;5.314;2023-06-14T14:59:02;26.90;99.90
13561;DHT22;6852;51.686;5.314;2023-06-14T15:01:37;26.70;99.90
13561;DHT22;6852;51.686;5.314;2023-06-14T15:04:04;26.80;99.90
13561;DHT22;6852;51.686;5.314;2023-06-14T15:06:31;26.60;99.90
13561;DHT22;6852;51.686;5.314;2023-06-14T15:08:59;26.60;99.90
13561;DHT22;6852;51.686;5.314;2023-06-14T15:11:26;26.50;99.90
13561;DHT22;6852;51.686;5.314;2023-06-14T15:13:53;26.60;99.90
13561;DHT22;6852;51.686;5.314;2023-06-14T15:16:20;26.70;99.90
13561;DHT22;6852;51.686;5.314;2023-06-14T15:18:47;26.50;99.90
13561;DHT22;6852;51.686;5.314;2023-06-14T15:21:14;26.50;99.90
13561;DHT22;6852;51.686;5.314;2023-06-14T15:23:41;26.60;99.90
13561;DHT22;6852;51.686;5.314;2023-06-14T15:26:08;26.40;99.90
13561;DHT22;6852;51.686;5.314;2023-06-14T15:28:38;26.20;99.90
13561;DHT22;6852;51.686;5.314;2023-06-14T15:31:08;26.00;99.90
13561;DHT22;6852;51.686;5.314;2023-06-14T15:33:43;26.30;99.90
13561;DHT22;6852;51.686;5.314;2023-06-14T15:36:10;26.40;99.90
13561;DHT22;6852;51.686;5.314;2023-06-14T15:38:37;26.60;99.90
13561;DHT22;6852;51.686;5.314;2023-06-14T15:41:04;26.50;99.90
13561;DHT22;6852;51.686;5.314;2023-06-14T15:43:32;26.40;99.90
13561;DHT22;6852;51.686;5.314;2023-06-14T15:45:59;26.40;99.90
13561;DHT22;6852;51.686;5.314;2023-06-14T15:48:27;26.30;99.90
13561;DHT22;6852;51.686;5.314;2023-06-14T15:50:54;26.20;99.90
13561;DHT22;6852;51.686;5.314;2023-06-14T15:53:21;26.20;99.90
13561;DHT22;6852;51.686;5.314;2023-06-14T15:55:48;26.10;99.90
13561;DHT22;6852;51.686;5.314;2023-06-14T15:58:15;26.20;99.90
13561;DHT22;6852;51.686;5.314;2023-06-14T16:00:42;26.10;99.90
13561;DHT22;6852;51.686;5.314;2023-06-14T16:03:09;26.00;99.90
13561;DHT22;6852;51.686;5.314;2023-06-14T16:05:36;26.10;99.90
13561;DHT22;6852;51.686;5.314;2023-06-14T16:08:06;25.90;99.90
13561;DHT22;6852;51.686;5.314;2023-06-14T16:10:34;25.80;99.90
13561;DHT22;6852;51.686;5.314;2023-06-14T16:13:01;25.90;99.90
13561;DHT22;6852;51.686;5.314;2023-06-14T16:15:28;25.80;99.90
13561;DHT22;6852;51.686;5.314;2023-06-14T16:17:55;25.70;99.90